createdAt,value
2022-11-21T00:00:47.175Z,8.40
2022-11-21T00:03:14.181Z,8.40
2022-11-21T00:05:45.557Z,8.30
2022-11-21T00:08:13.716Z,8.40
2022-11-21T00:10:40.799Z,8.20
2022-11-21T00:13:08.159Z,8.40
2022-11-21T00:15:38.031Z,8.50
2022-11-21T00:18:05.071Z,8.30
2022-11-21T00:20:31.997Z,8.40
2022-11-21T00:22:58.785Z,8.30
2022-11-21T00:25:25.612Z,8.40
2022-11-21T00:27:53.012Z,8.10
2022-11-21T00:30:19.907Z,7.80
2022-11-21T00:32:46.778Z,7.90
2022-11-21T00:35:13.853Z,7.60
2022-11-21T00:37:41.118Z,7.80
2022-11-21T00:40:08.423Z,8.10
2022-11-21T00:42:35.259Z,8.20
2022-11-21T00:45:02.156Z,8.30
2022-11-21T00:47:28.955Z,8.20
2022-11-21T00:49:55.761Z,8.20
2022-11-21T00:52:22.527Z,8.30
2022-11-21T00:54:49.366Z,7.80
2022-11-21T00:57:16.153Z,8.00
2022-11-21T00:59:42.965Z,7.90
2022-11-21T01:02:10.666Z,8.00
2022-11-21T01:04:37.455Z,7.90
2022-11-21T01:07:04.739Z,7.80
2022-11-21T01:09:31.742Z,7.60
2022-11-21T01:11:58.520Z,7.60
2022-11-21T01:14:25.529Z,7.60
2022-11-21T01:16:52.627Z,7.80
2022-11-21T01:19:19.482Z,7.80
2022-11-21T01:21:46.353Z,7.80
2022-11-21T01:24:13.240Z,7.60
2022-11-21T01:26:40.302Z,7.50
2022-11-21T01:29:08.779Z,7.60
2022-11-21T01:31:36.071Z,7.80
2022-11-21T01:34:02.965Z,7.70
2022-11-21T01:36:33.795Z,7.60
2022-11-21T01:39:04.006Z,7.40
2022-11-21T01:41:35.873Z,7.40
2022-11-21T01:44:23.755Z,7.30
2022-11-21T01:46:51.132Z,7.30
2022-11-21T01:49:28.962Z,7.30
2022-11-21T01:52:03.662Z,7.30
2022-11-21T01:54:37.387Z,7.20
2022-11-21T01:57:12.867Z,7.20
2022-11-21T01:59:58.234Z,7.20
2022-11-21T02:02:44.798Z,7.40
2022-11-21T02:05:13.641Z,7.70
2022-11-21T02:07:41.521Z,7.80
2022-11-21T02:10:08.910Z,8.00
2022-11-21T02:12:40.118Z,7.80
2022-11-21T02:15:07.683Z,7.60
2022-11-21T02:17:34.553Z,7.40
2022-11-21T02:20:03.516Z,7.50
2022-11-21T02:22:54.221Z,7.50
2022-11-21T02:25:22.517Z,7.60
2022-11-21T02:27:50.260Z,7.40
2022-11-21T02:30:17.167Z,7.20
2022-11-21T02:32:48.278Z,7.20
2022-11-21T02:35:17.061Z,7.30
2022-11-21T02:37:45.262Z,7.70
2022-11-21T02:40:15.761Z,7.80
2022-11-21T02:43:03.898Z,7.90
2022-11-21T02:45:38.284Z,7.60
2022-11-21T02:48:05.375Z,7.30
2022-11-21T02:50:38.888Z,7.40
2022-11-21T02:53:06.562Z,7.10
2022-11-21T02:55:33.399Z,6.90
2022-11-21T02:58:04.572Z,7.10
2022-11-21T03:00:32.846Z,7.10
2022-11-21T03:02:59.706Z,7.40
2022-11-21T03:05:26.568Z,7.40
2022-11-21T03:07:53.411Z,7.10
2022-11-21T03:10:20.676Z,7.50
2022-11-21T03:12:47.540Z,7.70
2022-11-21T03:15:14.983Z,7.90
2022-11-21T03:17:42.175Z,7.70
2022-11-21T03:20:09.554Z,7.50
2022-11-21T03:22:36.476Z,7.60
2022-11-21T03:25:03.453Z,7.30
2022-11-21T03:27:30.236Z,7.20
2022-11-21T03:29:57.025Z,7.10
2022-11-21T03:32:23.805Z,7.40
2022-11-21T03:34:50.594Z,7.20
2022-11-21T03:37:17.401Z,7.10
2022-11-21T03:39:44.239Z,7.10
2022-11-21T03:42:11.072Z,7.50
2022-11-21T03:44:37.948Z,7.20
2022-11-21T03:47:04.852Z,7.50
2022-11-21T03:49:31.667Z,7.60
2022-11-21T03:51:58.632Z,7.30
2022-11-21T03:54:25.801Z,7.30
2022-11-21T03:56:52.802Z,7.50
2022-11-21T03:59:19.578Z,7.50
2022-11-21T04:01:46.691Z,7.70
2022-11-21T04:04:13.569Z,7.80
2022-11-21T04:06:40.410Z,7.80
2022-11-21T04:09:07.254Z,7.90
2022-11-21T04:11:34.059Z,7.80
2022-11-21T04:14:00.846Z,7.90
2022-11-21T04:16:27.638Z,8.00
2022-11-21T04:18:54.475Z,7.90
2022-11-21T04:21:21.346Z,7.80
2022-11-21T04:23:48.132Z,7.90
2022-11-21T04:26:14.944Z,7.90
2022-11-21T04:28:41.797Z,7.80
2022-11-21T04:31:11.134Z,7.80
2022-11-21T04:33:38.984Z,7.70
2022-11-21T04:36:09.055Z,7.90
2022-11-21T04:38:36.231Z,7.80
2022-11-21T04:41:03.096Z,7.70
2022-11-21T04:43:29.962Z,7.90
2022-11-21T04:45:56.781Z,7.90
2022-11-21T04:48:24.716Z,7.90
2022-11-21T04:50:51.517Z,7.90
2022-11-21T04:53:18.355Z,7.90
2022-11-21T04:55:45.134Z,7.80
2022-11-21T04:58:11.926Z,7.90
2022-11-21T05:00:38.728Z,7.90
2022-11-21T05:03:06.061Z,8.00
2022-11-21T05:05:33.002Z,7.90
2022-11-21T05:07:59.892Z,7.70
2022-11-21T05:10:26.764Z,7.80
2022-11-21T05:13:16.811Z,7.70
2022-11-21T05:15:43.702Z,7.60
2022-11-21T05:18:10.642Z,7.70
2022-11-21T05:20:37.487Z,7.80
2022-11-21T05:23:04.337Z,7.80
2022-11-21T05:25:31.219Z,7.80
2022-11-21T05:27:58.049Z,7.70
2022-11-21T05:30:24.907Z,7.70
2022-11-21T05:32:51.767Z,7.90
2022-11-21T05:35:18.610Z,7.70
2022-11-21T05:37:45.479Z,7.80
2022-11-21T05:40:12.524Z,7.80
2022-11-21T05:42:58.858Z,7.80
2022-11-21T05:45:25.666Z,7.90
2022-11-21T05:47:52.545Z,7.90
2022-11-21T05:50:19.351Z,7.90
2022-11-21T05:52:46.143Z,7.80
2022-11-21T05:55:12.958Z,7.90
2022-11-21T05:57:39.831Z,7.90
2022-11-21T06:00:07.212Z,7.80
2022-11-21T06:02:52.552Z,7.70
2022-11-21T06:05:19.413Z,7.80
2022-11-21T06:07:46.258Z,7.90
2022-11-21T06:10:13.093Z,7.80
2022-11-21T06:12:39.889Z,7.80
2022-11-21T06:15:07.189Z,7.90
2022-11-21T06:17:33.997Z,8.10
2022-11-21T06:20:00.808Z,8.10
2022-11-21T06:22:27.634Z,8.10
2022-11-21T06:24:54.591Z,7.90
2022-11-21T06:27:21.422Z,8.00
2022-11-21T06:29:48.240Z,8.00
2022-11-21T06:32:15.139Z,7.80
2022-11-21T06:34:42.225Z,7.80
2022-11-21T06:37:09.066Z,7.80
2022-11-21T06:39:35.902Z,7.80
2022-11-21T06:42:02.795Z,7.80
2022-11-21T06:44:29.771Z,7.70
2022-11-21T06:46:56.778Z,7.90
2022-11-21T06:49:23.791Z,8.00
2022-11-21T06:51:50.675Z,7.90
2022-11-21T06:54:17.603Z,8.20
2022-11-21T06:56:44.527Z,8.20
2022-11-21T06:59:11.434Z,8.30
2022-11-21T07:01:38.437Z,8.30
2022-11-21T07:04:05.338Z,8.50
2022-11-21T07:06:32.110Z,8.60
2022-11-21T07:09:31.745Z,8.40
2022-11-21T07:11:45.832Z,8.50
2022-11-21T07:14:12.639Z,8.50
2022-11-21T07:16:39.458Z,8.50
2022-11-21T07:19:06.538Z,8.50
2022-11-21T07:21:33.374Z,8.60
2022-11-21T07:24:00.285Z,8.70
2022-11-21T07:26:27.071Z,8.70
2022-11-21T07:28:53.964Z,8.60
2022-11-21T07:31:20.771Z,8.60
2022-11-21T07:33:48.017Z,8.50
2022-11-21T07:36:14.857Z,8.60
2022-11-21T07:38:42.149Z,8.60
2022-11-21T07:41:09.765Z,8.60
2022-11-21T07:43:36.625Z,8.60
2022-11-21T07:46:03.495Z,8.80
2022-11-21T07:48:30.313Z,8.60
2022-11-21T07:50:57.142Z,8.70
2022-11-21T07:53:24.249Z,8.80
2022-11-21T07:55:51.059Z,8.80
2022-11-21T07:58:18.021Z,8.70
2022-11-21T08:00:44.888Z,8.80
2022-11-21T08:03:12.647Z,8.70
2022-11-21T08:05:43.591Z,8.70
2022-11-21T08:08:11.628Z,8.90
2022-11-21T08:10:39.608Z,8.90
2022-11-21T08:13:06.562Z,8.80
2022-11-21T08:15:33.477Z,8.70
2022-11-21T08:18:09.433Z,8.80
2022-11-21T08:20:36.309Z,8.40
2022-11-21T08:23:03.254Z,8.00
2022-11-21T08:25:30.499Z,8.50
2022-11-21T08:27:57.931Z,8.60
2022-11-21T08:30:24.984Z,8.60
2022-11-21T08:32:51.953Z,8.50
2022-11-21T08:35:19.179Z,9.10
2022-11-21T08:37:46.031Z,9.50
2022-11-21T08:40:14.259Z,9.60
2022-11-21T08:42:41.118Z,9.60
2022-11-21T08:45:08.463Z,9.60
2022-11-21T08:47:35.280Z,9.70
2022-11-21T08:50:07.342Z,9.80
2022-11-21T08:52:35.868Z,9.80
2022-11-21T08:55:02.688Z,9.70
2022-11-21T08:57:31.528Z,9.70
2022-11-21T08:59:58.341Z,9.70
2022-11-21T09:02:25.138Z,9.50
2022-11-21T09:04:53.506Z,9.40
2022-11-21T09:07:20.357Z,9.30
2022-11-21T09:09:47.206Z,9.40
2022-11-21T09:12:14.045Z,9.40
2022-11-21T09:14:59.326Z,9.10
2022-11-21T09:17:44.653Z,9.30
2022-11-21T09:20:11.510Z,9.40
2022-11-21T09:22:38.424Z,9.50
2022-11-21T09:25:05.767Z,9.50
2022-11-21T09:27:32.622Z,9.40
2022-11-21T09:29:59.479Z,9.40
2022-11-21T09:32:26.327Z,9.20
2022-11-21T09:34:53.156Z,9.10
2022-11-21T09:37:19.915Z,9.10
2022-11-21T09:39:46.751Z,8.70
2022-11-21T09:42:47.287Z,8.80
2022-11-21T09:45:15.592Z,8.80
2022-11-21T09:47:49.614Z,9.10
2022-11-21T09:50:16.450Z,9.40
2022-11-21T09:53:16.872Z,9.80
2022-11-21T09:56:00.239Z,10.00
2022-11-21T09:58:37.853Z,10.00
2022-11-21T10:01:04.766Z,10.20
2022-11-21T10:03:39.929Z,10.30
2022-11-21T10:06:25.376Z,10.40
2022-11-21T10:09:29.888Z,10.30
2022-11-21T10:12:18.367Z,10.50
2022-11-21T10:15:08.959Z,10.70
2022-11-21T10:17:49.096Z,10.30
2022-11-21T10:20:24.756Z,10.30
2022-11-21T10:23:16.196Z,10.50
2022-11-21T10:25:47.234Z,10.00
2022-11-21T10:28:23.074Z,10.10
2022-11-21T10:30:49.920Z,9.60
2022-11-21T10:33:40.389Z,9.30
2022-11-21T10:36:20.785Z,9.50
2022-11-21T10:38:50.180Z,9.50
2022-11-21T10:41:36.075Z,9.80
2022-11-21T10:44:44.604Z,9.90
2022-11-21T10:47:27.672Z,9.60
2022-11-21T10:50:09.360Z,10.20
2022-11-21T10:52:56.372Z,9.70
2022-11-21T10:55:23.147Z,9.70
2022-11-21T10:57:50.735Z,9.80
2022-11-21T11:00:24.210Z,10.00
2022-11-21T11:02:57.417Z,10.10
2022-11-21T11:05:34.885Z,10.20
2022-11-21T11:08:14.302Z,10.10
2022-11-21T11:10:41.692Z,9.80
2022-11-21T11:16:16.770Z,10.00
2022-11-21T11:18:55.935Z,10.20
2022-11-21T11:21:44.300Z,10.40
2022-11-21T11:24:11.126Z,10.30
2022-11-21T11:26:48.518Z,10.60
2022-11-21T11:29:32.324Z,10.80
2022-11-21T11:31:59.323Z,10.60
2022-11-21T11:34:35.565Z,10.50
2022-11-21T11:37:09.363Z,10.50
2022-11-21T11:39:58.288Z,10.90
2022-11-21T11:42:52.842Z,11.30
2022-11-21T11:46:15.783Z,11.70
2022-11-21T11:49:10.967Z,12.10
2022-11-21T11:51:39.522Z,12.00
2022-11-21T11:54:22.504Z,12.00
2022-11-21T11:56:49.360Z,12.10
2022-11-21T11:59:21.079Z,12.10
2022-11-21T12:01:57.928Z,11.80
2022-11-21T12:04:25.308Z,11.90
2022-11-21T12:10:15.104Z,13.10
2022-11-21T12:13:04.966Z,12.00
2022-11-21T12:16:11.819Z,10.80
2022-11-21T12:18:50.638Z,11.20
2022-11-21T12:21:20.790Z,12.40
2022-11-21T12:23:52.411Z,12.10
2022-11-21T12:26:45.550Z,11.20
2022-11-21T12:29:36.944Z,11.20
2022-11-21T12:32:42.018Z,10.80
2022-11-21T12:35:20.345Z,10.20
2022-11-21T12:38:10.626Z,10.70
2022-11-21T12:41:32.619Z,11.10
2022-11-21T12:44:01.785Z,11.30
2022-11-21T12:46:32.379Z,11.10
2022-11-21T12:49:32.833Z,11.20
2022-11-21T12:52:33.067Z,11.60
2022-11-21T12:55:10.377Z,11.70
2022-11-21T12:57:45.890Z,11.70
2022-11-21T13:00:30.898Z,11.70
2022-11-21T13:03:10.103Z,12.20
2022-11-21T13:05:40.526Z,11.60
2022-11-21T13:08:17.565Z,12.20
2022-11-21T13:11:12.740Z,11.90
2022-11-21T13:13:39.536Z,12.10
2022-11-21T13:16:11.516Z,12.20
2022-11-21T13:18:43.470Z,12.30
2022-11-21T13:21:42.953Z,13.30
2022-11-21T13:24:09.855Z,13.30
2022-11-21T13:26:36.711Z,13.20
2022-11-21T13:29:10.850Z,12.10
2022-11-21T13:31:37.979Z,12.10
2022-11-21T13:34:05.264Z,12.10
2022-11-21T13:36:32.193Z,12.20
2022-11-21T13:38:59.174Z,11.80
2022-11-21T13:42:01.089Z,11.90
2022-11-21T13:44:33.690Z,11.90
2022-11-21T13:47:10.213Z,12.00
2022-11-21T13:49:40.238Z,11.70
2022-11-21T13:52:53.146Z,11.30
2022-11-21T13:55:19.993Z,11.10
2022-11-21T13:58:18.548Z,11.10
2022-11-21T14:01:04.592Z,11.40
2022-11-21T14:03:34.201Z,11.30
2022-11-21T14:06:32.471Z,11.40
2022-11-21T14:09:18.649Z,10.90
2022-11-21T14:11:49.650Z,10.80
2022-11-21T14:14:31.580Z,11.00
2022-11-21T14:17:10.102Z,11.10
2022-11-21T14:19:36.906Z,11.00
2022-11-21T14:22:03.710Z,10.70
2022-11-21T14:24:30.520Z,10.80
2022-11-21T14:26:57.380Z,10.40
2022-11-21T14:29:26.820Z,10.60
2022-11-21T14:31:54.095Z,10.60
2022-11-21T14:34:28.598Z,10.10
2022-11-21T14:36:57.706Z,10.30
2022-11-21T14:39:37.681Z,10.00
2022-11-21T14:42:10.859Z,10.00
2022-11-21T14:44:37.725Z,9.90
2022-11-21T14:47:19.775Z,9.90
2022-11-21T14:49:55.143Z,9.90
2022-11-21T14:52:27.543Z,9.70
2022-11-21T14:57:45.841Z,9.70
2022-11-21T15:00:43.183Z,9.30
2022-11-21T15:03:04.152Z,9.50
2022-11-21T15:06:01.390Z,9.30
2022-11-21T15:08:53.785Z,9.40
2022-11-21T15:11:11.143Z,9.40
2022-11-21T15:13:58.665Z,9.10
2022-11-21T15:16:24.821Z,8.90
2022-11-21T15:18:51.661Z,8.90
2022-11-21T15:21:18.461Z,9.00
2022-11-21T15:23:45.520Z,8.80
2022-11-21T15:26:31.777Z,8.90
2022-11-21T15:29:00.058Z,8.80
2022-11-21T15:31:26.912Z,8.70
2022-11-21T15:37:16.401Z,8.60
2022-11-21T15:39:48.483Z,8.60
2022-11-21T15:42:49.192Z,8.60
2022-11-21T15:45:20.100Z,8.40
2022-11-21T15:48:03.084Z,8.30
2022-11-21T15:50:29.867Z,8.20
2022-11-21T15:52:56.850Z,8.00
2022-11-21T15:55:29.206Z,7.90
2022-11-21T15:57:56.075Z,7.80
2022-11-21T16:00:23.094Z,7.80
2022-11-21T16:02:49.936Z,7.80
2022-11-21T16:05:16.803Z,7.70
2022-11-21T16:07:43.767Z,7.70
2022-11-21T16:10:18.308Z,7.80
2022-11-21T16:12:47.083Z,7.60
2022-11-21T16:15:14.306Z,7.60
2022-11-21T16:17:41.829Z,7.80
2022-11-21T16:20:09.134Z,7.80
2022-11-21T16:22:35.943Z,7.70
2022-11-21T16:25:02.752Z,7.80
2022-11-21T16:27:29.674Z,7.50
2022-11-21T16:29:56.478Z,7.40
2022-11-21T16:32:25.675Z,7.40
2022-11-21T16:34:52.604Z,7.60
2022-11-21T16:37:19.507Z,7.50
2022-11-21T16:39:52.102Z,7.40
2022-11-21T16:42:19.410Z,7.30
2022-11-21T16:44:46.219Z,7.20
2022-11-21T16:47:13.931Z,7.10
2022-11-21T16:49:45.025Z,7.10
2022-11-21T16:52:11.873Z,7.20
2022-11-21T16:54:38.917Z,7.00
2022-11-21T16:57:05.776Z,7.00
2022-11-21T16:59:32.695Z,7.00
2022-11-21T17:01:59.788Z,6.50
2022-11-21T17:04:26.585Z,6.70
2022-11-21T17:06:53.508Z,6.60
2022-11-21T17:09:20.305Z,6.60
2022-11-21T17:11:47.111Z,6.60
2022-11-21T17:14:14.473Z,6.60
2022-11-21T17:16:41.833Z,6.60
2022-11-21T17:19:10.956Z,6.20
2022-11-21T17:21:37.831Z,6.40
2022-11-21T17:24:04.736Z,6.30
2022-11-21T17:26:31.608Z,6.50
2022-11-21T17:29:03.642Z,6.70
2022-11-21T17:31:30.671Z,6.90
2022-11-21T17:33:58.118Z,6.70
2022-11-21T17:36:26.366Z,6.40
2022-11-21T17:38:53.472Z,6.50
2022-11-21T17:41:21.148Z,6.40
2022-11-21T17:43:48.486Z,6.50
2022-11-21T17:46:18.952Z,6.50
2022-11-21T17:48:51.471Z,6.50
2022-11-21T17:51:25.475Z,6.50
2022-11-21T17:53:52.453Z,6.60
2022-11-21T17:56:20.679Z,6.70
2022-11-21T17:58:47.543Z,6.60
2022-11-21T18:01:19.023Z,6.30
2022-11-21T18:03:47.203Z,6.60
2022-11-21T18:06:15.536Z,6.50
2022-11-21T18:08:44.679Z,6.70
2022-11-21T18:11:12.314Z,6.30
2022-11-21T18:13:39.273Z,6.40
2022-11-21T18:16:12.133Z,6.30
2022-11-21T18:18:39.155Z,6.40
2022-11-21T18:21:13.134Z,6.50
2022-11-21T18:23:40.037Z,6.60
2022-11-21T18:26:08.684Z,6.50
2022-11-21T18:28:35.530Z,6.30
2022-11-21T18:31:06.725Z,6.30
2022-11-21T18:33:34.471Z,6.40
2022-11-21T18:36:01.614Z,6.50
2022-11-21T18:38:54.837Z,6.40
2022-11-21T18:41:23.406Z,6.40
2022-11-21T18:43:52.017Z,6.10
2022-11-21T18:46:19.112Z,6.30
2022-11-21T18:49:04.510Z,6.30
2022-11-21T18:51:32.709Z,6.00
2022-11-21T18:54:03.294Z,5.80
2022-11-21T18:56:30.313Z,6.10
2022-11-21T18:58:58.759Z,6.30
2022-11-21T19:01:27.375Z,6.30
2022-11-21T19:03:54.432Z,6.30
2022-11-21T19:06:22.136Z,6.20
2022-11-21T19:08:53.254Z,6.30
2022-11-21T19:11:20.590Z,6.40
2022-11-21T19:13:47.897Z,6.30
2022-11-21T19:16:18.854Z,6.20
2022-11-21T19:18:59.769Z,6.20
2022-11-21T19:21:35.477Z,6.20
2022-11-21T19:24:02.271Z,6.20
2022-11-21T19:26:30.958Z,5.70
2022-11-21T19:28:58.103Z,5.60
2022-11-21T19:31:24.907Z,5.60
2022-11-21T19:33:52.129Z,5.70
2022-11-21T19:36:20.221Z,5.80
2022-11-21T19:38:50.568Z,5.50
2022-11-21T19:41:19.980Z,5.50
2022-11-21T19:43:51.083Z,5.70
2022-11-21T19:46:19.717Z,5.40
2022-11-21T19:48:50.799Z,5.50
2022-11-21T19:51:18.145Z,5.40
2022-11-21T19:53:45.161Z,5.00
2022-11-21T19:56:19.622Z,5.30
2022-11-21T19:58:46.620Z,5.50
2022-11-21T20:01:14.820Z,5.20
2022-11-21T20:03:43.987Z,5.30
2022-11-21T20:06:27.105Z,5.50
2022-11-21T20:08:58.367Z,5.50
2022-11-21T20:11:25.764Z,5.50
2022-11-21T20:13:52.690Z,5.60
2022-11-21T20:16:39.918Z,5.70
2022-11-21T20:19:11.332Z,5.70
2022-11-21T20:21:38.393Z,5.70
2022-11-21T20:24:05.648Z,5.70
2022-11-21T20:26:32.717Z,5.60
2022-11-21T20:28:59.571Z,5.20
2022-11-21T20:31:28.169Z,5.00
2022-11-21T20:36:42.099Z,5.20
2022-11-21T20:39:15.876Z,5.30
2022-11-21T20:41:42.843Z,5.30
2022-11-21T20:45:07.205Z,5.00
2022-11-21T20:47:01.842Z,5.20
2022-11-21T20:49:28.935Z,5.20
2022-11-21T20:54:43.230Z,5.20
2022-11-21T20:57:14.895Z,4.70
2022-11-21T20:59:42.688Z,4.80
2022-11-21T21:02:12.388Z,4.80
2022-11-21T21:04:39.418Z,4.90
2022-11-21T21:07:06.329Z,5.00
2022-11-21T21:09:33.194Z,4.90
2022-11-21T21:12:00.003Z,5.00
2022-11-21T21:14:26.832Z,5.10
2022-11-21T21:16:53.618Z,5.00
2022-11-21T21:19:24.292Z,4.70
2022-11-21T21:21:51.107Z,4.90
2022-11-21T21:24:18.395Z,5.00
2022-11-21T21:26:46.523Z,5.00
2022-11-21T21:29:23.251Z,5.10
2022-11-21T21:31:52.105Z,5.20
2022-11-21T21:34:20.948Z,5.00
2022-11-21T21:36:48.287Z,5.10
2022-11-21T21:39:15.084Z,5.10
2022-11-21T21:41:46.036Z,5.30
2022-11-21T21:44:14.082Z,5.20
2022-11-21T21:46:43.172Z,5.30
2022-11-21T21:49:10.038Z,5.20
2022-11-21T21:51:37.488Z,5.20
2022-11-21T21:54:04.632Z,5.10
2022-11-21T21:56:31.707Z,5.00
2022-11-21T21:58:59.184Z,4.90
2022-11-21T22:01:29.536Z,5.10
2022-11-21T22:03:57.764Z,5.10
2022-11-21T22:06:24.683Z,5.00
2022-11-21T22:08:52.066Z,5.00
2022-11-21T22:11:23.237Z,4.80
2022-11-21T22:13:57.595Z,4.80
2022-11-21T22:16:24.579Z,4.80
2022-11-21T22:18:51.629Z,4.50
2022-11-21T22:21:27.844Z,4.20
2022-11-21T22:26:42.330Z,4.60
2022-11-21T22:29:09.204Z,4.60
2022-11-21T22:31:36.062Z,4.50
2022-11-21T22:34:02.938Z,4.50
2022-11-21T22:36:29.804Z,4.70
2022-11-21T22:38:56.756Z,4.90
2022-11-21T22:41:25.066Z,4.40
2022-11-21T22:43:57.088Z,4.60
2022-11-21T22:46:24.460Z,4.70
2022-11-21T22:48:51.326Z,4.80
2022-11-21T22:51:19.750Z,4.60
2022-11-21T22:53:47.531Z,4.60
2022-11-21T22:56:15.708Z,4.70
2022-11-21T22:58:42.532Z,4.70
2022-11-21T23:01:12.118Z,4.70
2022-11-21T23:03:38.913Z,4.80
2022-11-21T23:06:06.648Z,4.80
2022-11-21T23:08:33.704Z,4.80
2022-11-21T23:11:04.291Z,4.60
2022-11-21T23:13:31.319Z,4.80
2022-11-21T23:15:58.287Z,4.70
2022-11-21T23:18:25.166Z,4.70
2022-11-21T23:20:52.486Z,4.60
2022-11-21T23:23:19.806Z,4.60
2022-11-21T23:25:46.815Z,4.60
2022-11-21T23:28:13.692Z,4.20
2022-11-21T23:30:40.459Z,4.30
2022-11-21T23:33:07.512Z,4.20
2022-11-21T23:35:34.407Z,4.20
2022-11-21T23:38:01.272Z,4.50
2022-11-21T23:40:28.261Z,4.40
2022-11-21T23:42:55.146Z,4.20
2022-11-21T23:45:22.044Z,4.10
2022-11-21T23:47:48.815Z,4.10
2022-11-21T23:50:16.680Z,4.30
2022-11-21T23:52:43.521Z,4.20
2022-11-21T23:55:11.021Z,4.00
2022-11-21T23:57:37.840Z,3.70
